createdAt,value
2024-03-03T00:00:26.652Z,8.31
2024-03-03T00:02:28.542Z,8.36
2024-03-03T00:04:30.354Z,8.44
2024-03-03T00:06:33.299Z,8.48
2024-03-03T00:08:35.050Z,8.53
2024-03-03T00:10:36.900Z,8.55
2024-03-03T00:12:39.434Z,8.59
2024-03-03T00:14:41.205Z,8.63
2024-03-03T00:16:43.644Z,8.68
2024-03-03T00:18:45.471Z,8.70
2024-03-03T00:20:47.210Z,8.72
2024-03-03T00:22:49.782Z,8.77
2024-03-03T00:24:52.229Z,8.77
2024-03-03T00:26:54.115Z,8.80
2024-03-03T00:28:55.940Z,8.82
2024-03-03T00:30:57.828Z,8.84
2024-03-03T00:33:00.177Z,8.80
2024-03-03T00:35:02.094Z,8.75
2024-03-03T00:37:04.085Z,8.72
2024-03-03T00:39:06.031Z,8.74
2024-03-03T00:41:08.160Z,8.74
2024-03-03T00:43:10.005Z,8.75
2024-03-03T00:45:12.876Z,8.77
2024-03-03T00:47:14.691Z,8.74
2024-03-03T00:49:16.531Z,8.53
2024-03-03T00:51:18.501Z,8.49
2024-03-03T00:53:22.181Z,8.50
2024-03-03T00:55:24.876Z,8.51
2024-03-03T00:57:26.984Z,8.49
2024-03-03T00:59:28.966Z,8.39
2024-03-03T01:01:31.520Z,8.32
2024-03-03T01:03:33.347Z,7.93
2024-03-03T01:05:35.189Z,7.44
2024-03-03T01:07:39.602Z,7.04
2024-03-03T01:09:42.897Z,6.92
2024-03-03T01:11:45.248Z,7.00
2024-03-03T01:13:47.165Z,7.12
2024-03-03T01:15:48.984Z,7.39
2024-03-03T01:17:50.940Z,7.63
2024-03-03T01:19:52.801Z,7.82
2024-03-03T01:21:54.802Z,7.99
2024-03-03T01:23:57.558Z,8.14
2024-03-03T01:25:59.396Z,8.22
2024-03-03T01:28:01.294Z,8.31
2024-03-03T01:30:05.199Z,8.39
2024-03-03T01:32:09.596Z,8.46
2024-03-03T01:34:11.428Z,8.51
2024-03-03T01:36:14.842Z,8.51
2024-03-03T01:38:17.017Z,8.56
2024-03-03T01:40:19.016Z,8.57
2024-03-03T01:42:20.926Z,8.61
2024-03-03T01:44:22.855Z,8.65
2024-03-03T01:46:25.380Z,8.66
2024-03-03T01:48:27.313Z,8.66
2024-03-03T01:50:29.304Z,8.63
2024-03-03T01:52:31.296Z,8.69
2024-03-03T01:54:34.334Z,8.69
2024-03-03T01:56:36.660Z,8.70
2024-03-03T01:58:40.406Z,8.71
2024-03-03T02:00:42.310Z,8.73
2024-03-03T02:02:45.608Z,8.71
2024-03-03T02:04:47.871Z,8.69
2024-03-03T02:06:51.916Z,8.65
2024-03-03T02:08:53.940Z,8.60
2024-03-03T02:10:55.916Z,8.55
2024-03-03T02:12:57.914Z,8.54
2024-03-03T02:15:00.043Z,8.52
2024-03-03T02:17:02.391Z,8.50
2024-03-03T02:19:04.205Z,8.49
2024-03-03T02:21:06.091Z,8.45
2024-03-03T02:23:08.213Z,8.45
2024-03-03T02:25:10.598Z,8.47
2024-03-03T02:27:12.598Z,8.42
2024-03-03T02:29:14.900Z,8.39
2024-03-03T02:31:16.893Z,8.37
2024-03-03T02:33:19.169Z,8.33
2024-03-03T02:35:21.010Z,8.30
2024-03-03T02:37:22.893Z,8.31
2024-03-03T02:39:24.810Z,8.30
2024-03-03T02:41:27.086Z,8.32
2024-03-03T02:43:29.002Z,8.31
2024-03-03T02:45:30.957Z,8.23
2024-03-03T02:47:32.930Z,8.15
2024-03-03T02:49:35.068Z,8.05
2024-03-03T02:51:37.032Z,7.86
2024-03-03T02:53:38.938Z,7.42
2024-03-03T02:55:40.664Z,7.17
2024-03-03T02:57:43.554Z,6.83
2024-03-03T02:59:45.567Z,6.60
2024-03-03T03:01:47.389Z,6.52
2024-03-03T03:03:49.349Z,6.30
2024-03-03T03:05:51.269Z,6.42
2024-03-03T03:07:53.142Z,6.46
2024-03-03T03:09:54.956Z,6.16
2024-03-03T03:11:56.840Z,6.02
2024-03-03T03:13:58.713Z,6.13
2024-03-03T03:16:04.618Z,6.36
2024-03-03T03:18:06.952Z,6.58
2024-03-03T03:20:09.423Z,6.35
2024-03-03T03:22:11.180Z,6.24
2024-03-03T03:24:13.061Z,5.90
2024-03-03T03:26:14.905Z,5.96
2024-03-03T03:28:16.916Z,6.03
2024-03-03T03:30:18.845Z,6.11
2024-03-03T03:32:20.687Z,6.12
2024-03-03T03:34:22.488Z,6.20
2024-03-03T03:36:24.212Z,6.34
2024-03-03T03:38:26.374Z,6.50
2024-03-03T03:40:29.574Z,6.63
2024-03-03T03:42:31.619Z,6.72
2024-03-03T03:44:33.503Z,6.80
2024-03-03T03:46:35.313Z,6.88
2024-03-03T03:48:37.443Z,6.93
2024-03-03T03:50:39.293Z,6.98
2024-03-03T03:52:41.054Z,6.91
2024-03-03T03:54:42.877Z,6.94
2024-03-03T03:56:44.690Z,7.05
2024-03-03T03:58:46.638Z,7.15
2024-03-03T04:00:48.461Z,7.24
2024-03-03T04:02:50.198Z,7.20
2024-03-03T04:04:52.076Z,6.79
2024-03-03T04:06:54.327Z,6.60
2024-03-03T04:08:56.395Z,6.43
2024-03-03T04:11:00.428Z,6.59
2024-03-03T04:13:03.088Z,6.78
2024-03-03T04:15:05.560Z,6.72
2024-03-03T04:17:07.664Z,6.67
2024-03-03T04:19:09.745Z,6.63
2024-03-03T04:21:11.617Z,6.74
2024-03-03T04:23:13.394Z,6.88
2024-03-03T04:25:16.512Z,7.02
2024-03-03T04:27:18.361Z,7.16
2024-03-03T04:29:20.231Z,7.23
2024-03-03T04:31:22.448Z,7.29
2024-03-03T04:33:24.711Z,7.37
2024-03-03T04:35:26.443Z,7.44
2024-03-03T04:37:28.322Z,7.48
2024-03-03T04:39:30.137Z,7.54
2024-03-03T04:41:32.697Z,7.56
2024-03-03T04:43:34.557Z,7.59
2024-03-03T04:45:36.394Z,7.55
2024-03-03T04:47:38.235Z,7.42
2024-03-03T04:49:42.858Z,7.31
2024-03-03T04:51:45.142Z,7.30
2024-03-03T04:53:46.995Z,7.39
2024-03-03T04:55:48.796Z,7.43
2024-03-03T04:57:50.812Z,7.46
2024-03-03T04:59:52.895Z,7.50
2024-03-03T05:01:54.655Z,7.45
2024-03-03T05:03:57.694Z,7.48
2024-03-03T05:05:59.560Z,7.50
2024-03-03T05:08:01.407Z,7.54
2024-03-03T05:10:03.946Z,7.56
2024-03-03T05:12:06.992Z,7.64
2024-03-03T05:14:08.974Z,7.66
2024-03-03T05:16:11.051Z,7.43
2024-03-03T05:18:13.197Z,7.21
2024-03-03T05:20:15.065Z,7.23
2024-03-03T05:22:16.937Z,7.26
2024-03-03T05:24:18.780Z,7.29
2024-03-03T05:26:21.706Z,7.31
2024-03-03T05:28:25.227Z,7.36
2024-03-03T05:30:27.423Z,7.36
2024-03-03T05:32:29.304Z,7.39
2024-03-03T05:34:31.283Z,7.41
2024-03-03T05:36:35.104Z,7.44
2024-03-03T05:38:36.720Z,7.48
2024-03-03T05:40:38.535Z,7.52
2024-03-03T05:42:40.536Z,7.58
2024-03-03T05:44:42.486Z,7.65
2024-03-03T05:46:44.395Z,7.70
2024-03-03T05:48:46.162Z,7.74
2024-03-03T05:50:47.892Z,7.76
2024-03-03T05:52:49.874Z,7.79
2024-03-03T05:54:51.665Z,7.83
2024-03-03T05:56:53.555Z,7.86
2024-03-03T05:58:55.843Z,7.76
2024-03-03T06:00:57.707Z,7.58
2024-03-03T06:02:59.594Z,7.43
2024-03-03T06:05:01.447Z,7.48
2024-03-03T06:07:06.761Z,7.53
2024-03-03T06:09:09.989Z,7.60
2024-03-03T06:11:12.093Z,7.65
2024-03-03T06:13:14.007Z,7.74
2024-03-03T06:15:15.783Z,7.73
2024-03-03T06:17:17.615Z,7.74
2024-03-03T06:19:19.550Z,7.77
2024-03-03T06:21:21.386Z,7.77
2024-03-03T06:23:23.357Z,7.77
2024-03-03T06:25:25.195Z,7.68
2024-03-03T06:27:27.023Z,7.69
2024-03-03T06:29:28.758Z,7.64
2024-03-03T06:31:30.445Z,7.53
2024-03-03T06:33:32.334Z,7.39
2024-03-03T06:35:34.233Z,7.08
2024-03-03T06:37:36.101Z,7.00
2024-03-03T06:39:37.908Z,6.99
2024-03-03T06:41:40.024Z,7.06
2024-03-03T06:43:42.800Z,7.06
2024-03-03T06:45:44.737Z,7.12
2024-03-03T06:47:46.596Z,7.17
2024-03-03T06:49:48.467Z,7.29
2024-03-03T06:51:50.493Z,7.19
2024-03-03T06:53:53.858Z,7.01
2024-03-03T06:55:55.779Z,6.98
2024-03-03T06:57:57.869Z,6.79
2024-03-03T06:59:59.768Z,6.63
2024-03-03T07:02:01.774Z,6.76
2024-03-03T07:04:09.653Z,6.96
2024-03-03T07:06:11.484Z,7.20
2024-03-03T07:08:13.371Z,7.34
2024-03-03T07:10:15.708Z,7.44
2024-03-03T07:12:17.580Z,7.37
2024-03-03T07:14:20.470Z,7.50
2024-03-03T07:16:22.268Z,7.62
2024-03-03T07:18:24.324Z,7.76
2024-03-03T07:20:26.270Z,7.84
2024-03-03T07:22:28.088Z,7.90
2024-03-03T07:24:29.937Z,7.90
2024-03-03T07:26:32.705Z,7.96
2024-03-03T07:28:34.422Z,7.84
2024-03-03T07:30:36.127Z,7.84
2024-03-03T07:32:39.692Z,7.83
2024-03-03T07:34:44.319Z,7.80
2024-03-03T07:36:47.500Z,7.84
2024-03-03T07:38:49.424Z,7.93
2024-03-03T07:40:51.230Z,7.99
2024-03-03T07:42:53.063Z,8.04
2024-03-03T07:44:54.903Z,8.09
2024-03-03T07:46:56.635Z,8.15
2024-03-03T07:48:58.675Z,8.05
2024-03-03T07:51:03.515Z,7.86
2024-03-03T07:53:05.484Z,7.66
2024-03-03T07:55:08.098Z,7.50
2024-03-03T07:57:09.927Z,7.30
2024-03-03T07:59:11.674Z,7.34
2024-03-03T08:01:13.659Z,7.39
2024-03-03T08:03:16.059Z,7.55
2024-03-03T08:05:17.871Z,7.73
2024-03-03T08:07:20.098Z,7.66
2024-03-03T08:09:21.959Z,7.48
2024-03-03T08:11:24.365Z,7.48
2024-03-03T08:13:26.292Z,7.55
2024-03-03T08:15:28.587Z,7.60
2024-03-03T08:17:30.384Z,7.66
2024-03-03T08:19:32.236Z,7.80
2024-03-03T08:21:33.980Z,7.95
2024-03-03T08:23:35.828Z,8.10
2024-03-03T08:25:37.783Z,8.29
2024-03-03T08:27:40.397Z,8.43
2024-03-03T08:29:42.117Z,8.59
2024-03-03T08:31:46.090Z,8.62
2024-03-03T08:33:47.919Z,8.46
2024-03-03T08:35:49.898Z,8.26
2024-03-03T08:37:53.862Z,7.94
2024-03-03T08:39:55.654Z,7.97
2024-03-03T08:41:57.528Z,8.03
2024-03-03T08:43:59.380Z,8.00
2024-03-03T08:46:01.286Z,8.24
2024-03-03T08:48:03.254Z,8.36
2024-03-03T08:50:05.621Z,8.35
2024-03-03T08:52:08.860Z,8.51
2024-03-03T08:54:10.756Z,8.66
2024-03-03T08:56:12.708Z,8.83
2024-03-03T08:58:14.495Z,8.90
2024-03-03T09:00:16.667Z,8.87
2024-03-03T09:02:18.630Z,8.89
2024-03-03T09:04:20.368Z,8.94
2024-03-03T09:06:22.390Z,9.00
2024-03-03T09:08:24.190Z,9.13
2024-03-03T09:10:26.375Z,9.32
2024-03-03T09:12:28.865Z,9.35
2024-03-03T09:14:30.745Z,9.31
2024-03-03T09:16:32.646Z,9.33
2024-03-03T09:18:34.546Z,9.31
2024-03-03T09:20:36.396Z,9.39
2024-03-03T09:22:38.509Z,9.52
2024-03-03T09:24:44.618Z,9.62
2024-03-03T09:26:50.297Z,9.72
2024-03-03T09:28:52.089Z,9.78
2024-03-03T09:30:54.239Z,9.83
2024-03-03T09:32:56.081Z,10.02
2024-03-03T09:34:57.925Z,10.07
2024-03-03T09:36:59.975Z,10.16
2024-03-03T09:39:02.459Z,10.19
2024-03-03T09:41:04.535Z,10.33
2024-03-03T09:43:09.658Z,10.35
2024-03-03T09:45:13.722Z,10.42
2024-03-03T09:47:16.816Z,10.49
2024-03-03T09:49:20.457Z,10.49
2024-03-03T09:51:25.469Z,10.50
2024-03-03T09:53:28.642Z,10.50
2024-03-03T09:55:31.625Z,10.42
2024-03-03T09:57:34.374Z,9.73
2024-03-03T09:59:36.476Z,9.54
2024-03-03T10:01:44.299Z,9.62
2024-03-03T10:03:46.292Z,9.71
2024-03-03T10:05:49.309Z,10.01
2024-03-03T10:07:54.620Z,9.98
2024-03-03T10:10:04.525Z,9.84
2024-03-03T10:12:07.415Z,9.82
2024-03-03T10:14:13.946Z,9.97
2024-03-03T10:16:16.507Z,10.28
2024-03-03T10:18:21.546Z,10.51
2024-03-03T10:20:23.793Z,10.89
2024-03-03T10:22:25.768Z,11.13
2024-03-03T10:24:28.730Z,11.31
2024-03-03T10:26:36.867Z,10.94
2024-03-03T10:28:38.791Z,10.28
2024-03-03T10:30:40.622Z,10.03
2024-03-03T10:32:43.610Z,10.04
2024-03-03T10:34:58.319Z,10.17
2024-03-03T10:37:04.483Z,10.58
2024-03-03T10:39:09.432Z,10.85
2024-03-03T10:41:11.337Z,10.87
2024-03-03T10:43:13.228Z,10.61
2024-03-03T10:45:15.486Z,10.56
2024-03-03T10:47:19.902Z,10.57
2024-03-03T10:49:26.559Z,10.74
2024-03-03T10:51:28.775Z,10.75
2024-03-03T10:53:32.720Z,11.13
2024-03-03T10:55:35.138Z,11.47
2024-03-03T10:57:37.347Z,11.79
2024-03-03T10:59:42.602Z,12.03
2024-03-03T11:01:45.248Z,12.23
2024-03-03T11:03:48.688Z,12.09
2024-03-03T11:05:53.907Z,11.88
2024-03-03T11:07:55.906Z,12.08
2024-03-03T11:09:58.394Z,12.33
2024-03-03T11:12:02.076Z,12.54
2024-03-03T11:14:13.255Z,12.65
2024-03-03T11:16:15.244Z,12.94
2024-03-03T11:18:20.082Z,12.97
2024-03-03T11:20:23.878Z,12.90
2024-03-03T11:22:25.874Z,12.90
2024-03-03T11:24:33.360Z,12.90
2024-03-03T11:26:53.721Z,13.02
2024-03-03T11:29:00.727Z,13.27
2024-03-03T11:31:03.761Z,13.50
2024-03-03T11:33:05.983Z,13.67
2024-03-03T11:35:08.469Z,13.64
2024-03-03T11:37:13.050Z,13.34
2024-03-03T11:39:18.017Z,13.18
2024-03-03T11:41:21.777Z,13.32
2024-03-03T11:43:27.237Z,13.22
2024-03-03T11:45:45.953Z,13.46
2024-03-03T11:47:48.653Z,13.68
2024-03-03T11:49:51.090Z,13.90
2024-03-03T11:51:53.262Z,13.75
2024-03-03T11:54:05.172Z,13.04
2024-03-03T11:56:18.954Z,12.96
2024-03-03T11:58:21.326Z,13.10
2024-03-03T12:00:28.780Z,13.40
2024-03-03T12:02:31.143Z,13.68
2024-03-03T12:04:33.052Z,13.93
2024-03-03T12:06:35.642Z,14.03
2024-03-03T12:08:37.685Z,14.05
2024-03-03T12:10:42.356Z,13.97
2024-03-03T12:12:57.842Z,14.10
2024-03-03T12:15:00.814Z,14.29
2024-03-03T12:17:03.321Z,14.42
2024-03-03T12:19:05.688Z,14.58
2024-03-03T12:21:07.559Z,14.53
2024-03-03T12:23:09.875Z,14.48
2024-03-03T12:25:12.342Z,14.34
2024-03-03T12:27:14.210Z,14.42
2024-03-03T12:29:17.022Z,14.38
2024-03-03T12:31:19.239Z,14.41
2024-03-03T12:33:21.266Z,14.61
2024-03-03T12:35:23.867Z,14.63
2024-03-03T12:37:26.493Z,14.68
2024-03-03T12:39:28.562Z,14.71
2024-03-03T12:41:31.198Z,14.66
2024-03-03T12:43:33.364Z,14.47
2024-03-03T12:45:35.323Z,14.46
2024-03-03T12:47:37.150Z,14.62
2024-03-03T12:49:39.579Z,14.83
2024-03-03T12:51:42.775Z,14.98
2024-03-03T12:53:45.236Z,15.02
2024-03-03T12:55:47.164Z,14.95
2024-03-03T12:57:48.967Z,14.85
2024-03-03T12:59:50.973Z,14.63
2024-03-03T13:01:53.337Z,14.54
2024-03-03T13:03:55.683Z,14.49
2024-03-03T13:05:57.580Z,14.46
2024-03-03T13:08:00.258Z,14.39
2024-03-03T13:10:14.191Z,14.31
2024-03-03T13:12:19.784Z,14.32
2024-03-03T13:14:23.965Z,14.23
2024-03-03T13:16:27.260Z,14.16
2024-03-03T13:18:29.152Z,14.11
2024-03-03T13:20:32.080Z,14.04
2024-03-03T13:22:34.011Z,14.03
2024-03-03T13:24:37.535Z,14.01
2024-03-03T13:26:42.110Z,14.07
2024-03-03T13:28:46.600Z,14.06
2024-03-03T13:31:01.433Z,14.07
2024-03-03T13:33:03.324Z,14.08
2024-03-03T13:35:06.052Z,14.08
2024-03-03T13:37:08.942Z,14.07
2024-03-03T13:39:12.063Z,14.06
2024-03-03T13:41:14.031Z,14.05
2024-03-03T13:43:15.885Z,13.99
2024-03-03T13:45:17.860Z,13.97
2024-03-03T13:47:19.682Z,13.96
2024-03-03T13:49:22.064Z,13.92
2024-03-03T13:51:23.966Z,13.91
2024-03-03T13:53:25.645Z,13.87
2024-03-03T13:55:28.003Z,13.89
2024-03-03T13:57:29.982Z,13.87
2024-03-03T13:59:33.058Z,13.87
2024-03-03T14:01:34.945Z,13.91
2024-03-03T14:03:36.726Z,13.91
2024-03-03T14:05:39.333Z,13.95
2024-03-03T14:07:44.472Z,13.98
2024-03-03T14:09:47.385Z,14.04
2024-03-03T14:11:49.298Z,14.09
2024-03-03T14:13:51.203Z,14.21
2024-03-03T14:15:53.590Z,14.29
2024-03-03T14:17:55.336Z,14.33
2024-03-03T14:19:57.598Z,14.35
2024-03-03T14:21:59.333Z,14.37
2024-03-03T14:24:01.691Z,14.34
2024-03-03T14:26:03.639Z,14.36
2024-03-03T14:28:12.442Z,14.34
2024-03-03T14:30:15.992Z,14.45
2024-03-03T14:32:17.800Z,14.50
2024-03-03T14:34:19.704Z,14.50
2024-03-03T14:36:24.433Z,14.50
2024-03-03T14:38:26.156Z,14.44
2024-03-03T14:40:28.268Z,14.37
2024-03-03T14:42:31.742Z,14.32
2024-03-03T14:44:33.486Z,14.34
2024-03-03T14:46:35.691Z,14.38
2024-03-03T14:48:37.600Z,14.49
2024-03-03T14:50:39.459Z,14.62
2024-03-03T14:52:41.229Z,14.73
2024-03-03T14:54:43.527Z,14.77
2024-03-03T14:56:45.455Z,14.71
2024-03-03T14:58:47.507Z,14.64
2024-03-03T15:00:50.168Z,14.58
2024-03-03T15:02:52.946Z,14.52
2024-03-03T15:04:54.786Z,14.41
2024-03-03T15:06:58.075Z,14.34
2024-03-03T15:08:59.837Z,14.29
2024-03-03T15:11:02.269Z,14.31
2024-03-03T15:13:06.818Z,14.32
2024-03-03T15:15:09.217Z,14.32
2024-03-03T15:17:21.158Z,14.23
2024-03-03T15:19:24.145Z,14.16
2024-03-03T15:21:26.145Z,14.11
2024-03-03T15:23:27.946Z,14.10
2024-03-03T15:25:29.796Z,14.11
2024-03-03T15:27:31.793Z,14.09
2024-03-03T15:29:33.571Z,14.07
2024-03-03T15:31:35.509Z,14.06
2024-03-03T15:33:37.625Z,14.04
2024-03-03T15:35:39.432Z,14.04
2024-03-03T15:37:41.501Z,13.99
2024-03-03T15:39:43.319Z,13.92
2024-03-03T15:41:45.156Z,13.88
2024-03-03T15:43:47.237Z,13.80
2024-03-03T15:45:49.451Z,13.70
2024-03-03T15:47:51.392Z,13.65
2024-03-03T15:49:53.351Z,13.62
2024-03-03T15:51:55.293Z,13.59
2024-03-03T15:53:57.037Z,13.59
2024-03-03T15:56:00.011Z,13.56
2024-03-03T15:58:02.393Z,13.55
2024-03-03T16:00:07.797Z,13.53
2024-03-03T16:02:09.664Z,13.51
2024-03-03T16:04:11.522Z,13.49
2024-03-03T16:06:13.361Z,13.45
2024-03-03T16:08:17.011Z,13.40
2024-03-03T16:10:18.902Z,13.35
2024-03-03T16:12:20.869Z,13.32
2024-03-03T16:14:22.958Z,13.23
2024-03-03T16:16:30.262Z,13.14
2024-03-03T16:18:32.760Z,13.08
2024-03-03T16:20:34.646Z,13.04
2024-03-03T16:22:39.844Z,12.99
2024-03-03T16:24:41.769Z,12.95
2024-03-03T16:26:44.470Z,12.91
2024-03-03T16:28:46.301Z,12.85
2024-03-03T16:30:48.174Z,12.83
2024-03-03T16:32:50.106Z,12.83
2024-03-03T16:34:51.886Z,12.84
2024-03-03T16:36:54.254Z,12.85
2024-03-03T16:38:56.735Z,12.78
2024-03-03T16:40:59.033Z,12.77
2024-03-03T16:43:04.284Z,12.71
2024-03-03T16:45:08.719Z,12.60
2024-03-03T16:47:11.129Z,12.48
2024-03-03T16:49:12.968Z,12.49
2024-03-03T16:51:15.016Z,12.52
2024-03-03T16:53:16.726Z,12.57
2024-03-03T16:55:20.717Z,12.56
2024-03-03T16:57:22.596Z,12.59
2024-03-03T16:59:24.372Z,12.59
2024-03-03T17:01:26.478Z,12.61
2024-03-03T17:03:31.633Z,12.59
2024-03-03T17:05:34.503Z,12.58
2024-03-03T17:07:36.820Z,12.57
2024-03-03T17:09:38.617Z,12.53
2024-03-03T17:11:41.296Z,12.53
2024-03-03T17:13:43.267Z,12.49
2024-03-03T17:15:45.175Z,12.48
2024-03-03T17:17:47.055Z,12.47
2024-03-03T17:19:49.478Z,12.43
2024-03-03T17:21:51.389Z,12.41
2024-03-03T17:23:53.158Z,12.40
2024-03-03T17:25:55.531Z,12.35
2024-03-03T17:27:57.414Z,12.18
2024-03-03T17:29:59.293Z,12.14
2024-03-03T17:32:01.207Z,12.12
2024-03-03T17:34:03.163Z,12.08
2024-03-03T17:36:06.390Z,12.08
2024-03-03T17:38:08.876Z,12.12
2024-03-03T17:40:10.942Z,12.12
2024-03-03T17:42:12.778Z,12.12
2024-03-03T17:44:14.740Z,12.08
2024-03-03T17:46:16.652Z,12.06
2024-03-03T17:48:19.646Z,12.07
2024-03-03T17:50:21.406Z,12.07
2024-03-03T17:52:23.333Z,12.07
2024-03-03T17:54:25.374Z,12.09
2024-03-03T17:56:27.205Z,12.11
2024-03-03T17:58:29.970Z,12.10
2024-03-03T18:00:31.867Z,12.09
2024-03-03T18:02:33.609Z,12.07
2024-03-03T18:04:35.651Z,12.08
2024-03-03T18:06:37.681Z,12.09
2024-03-03T18:08:39.497Z,12.11
2024-03-03T18:10:41.517Z,12.11
2024-03-03T18:12:43.280Z,12.11
2024-03-03T18:14:45.105Z,12.03
2024-03-03T18:16:46.934Z,11.84
2024-03-03T18:18:48.826Z,11.79
2024-03-03T18:20:50.783Z,11.67
2024-03-03T18:22:52.574Z,11.61
2024-03-03T18:24:54.673Z,11.57
2024-03-03T18:26:56.462Z,11.41
2024-03-03T18:28:58.359Z,11.41
2024-03-03T18:31:00.807Z,11.45
2024-03-03T18:33:04.651Z,11.48
2024-03-03T18:35:08.611Z,11.52
2024-03-03T18:37:11.899Z,11.50
2024-03-03T18:39:13.704Z,11.53
2024-03-03T18:41:18.047Z,11.52
2024-03-03T18:43:20.004Z,11.52
2024-03-03T18:45:22.417Z,11.54
2024-03-03T18:47:24.329Z,11.55
2024-03-03T18:49:26.975Z,11.55
2024-03-03T18:51:29.878Z,11.56
2024-03-03T18:53:35.476Z,11.55
2024-03-03T18:55:37.452Z,11.50
2024-03-03T18:57:39.418Z,11.45
2024-03-03T18:59:41.588Z,11.31
2024-03-03T19:01:44.103Z,11.18
2024-03-03T19:03:46.044Z,11.05
2024-03-03T19:05:47.942Z,11.04
2024-03-03T19:07:50.012Z,11.02
2024-03-03T19:09:51.922Z,10.89
2024-03-03T19:11:54.734Z,10.76
2024-03-03T19:13:57.563Z,10.71
2024-03-03T19:15:59.473Z,10.60
2024-03-03T19:18:01.642Z,10.56
2024-03-03T19:20:04.906Z,10.48
2024-03-03T19:22:06.867Z,10.41
2024-03-03T19:24:09.396Z,10.29
2024-03-03T19:26:11.375Z,10.23
2024-03-03T19:28:13.288Z,10.26
2024-03-03T19:30:16.173Z,10.37
2024-03-03T19:32:17.976Z,10.47
2024-03-03T19:34:20.064Z,10.62
2024-03-03T19:36:22.011Z,10.68
2024-03-03T19:38:24.876Z,10.66
2024-03-03T19:40:26.989Z,10.71
2024-03-03T19:42:29.048Z,10.74
2024-03-03T19:44:31.033Z,10.79
2024-03-03T19:46:33.181Z,10.81
2024-03-03T19:48:35.262Z,10.84
2024-03-03T19:50:37.299Z,10.84
2024-03-03T19:52:39.245Z,10.83
2024-03-03T19:54:41.091Z,10.80
2024-03-03T19:56:42.871Z,10.79
2024-03-03T19:58:44.628Z,10.77
2024-03-03T20:00:46.547Z,10.76
2024-03-03T20:02:49.381Z,10.70
2024-03-03T20:04:51.247Z,10.68
2024-03-03T20:06:53.273Z,10.66
2024-03-03T20:08:55.081Z,10.64
2024-03-03T20:11:00.183Z,10.64
2024-03-03T20:13:05.427Z,10.58
2024-03-03T20:15:09.551Z,10.54
2024-03-03T20:17:15.056Z,10.49
2024-03-03T20:19:17.148Z,10.50
2024-03-03T20:21:19.096Z,10.45
2024-03-03T20:23:24.371Z,10.42
2024-03-03T20:25:26.330Z,10.43
2024-03-03T20:27:28.193Z,10.40
2024-03-03T20:29:30.073Z,10.41
2024-03-03T20:31:32.571Z,10.39
2024-03-03T20:33:34.480Z,10.34
2024-03-03T20:35:36.301Z,10.32
2024-03-03T20:37:38.151Z,10.29
2024-03-03T20:39:40.113Z,10.25
2024-03-03T20:41:44.073Z,10.23
2024-03-03T20:43:48.145Z,10.23
2024-03-03T20:45:51.281Z,10.10
2024-03-03T20:47:53.318Z,10.07
2024-03-03T20:49:55.099Z,10.08
2024-03-03T20:51:56.889Z,10.04
2024-03-03T20:53:59.102Z,10.09
2024-03-03T20:56:01.087Z,10.09
2024-03-03T20:58:03.438Z,10.06
2024-03-03T21:00:09.875Z,10.00
2024-03-03T21:02:13.386Z,10.01
2024-03-03T21:04:16.525Z,10.00
2024-03-03T21:06:19.021Z,10.05
2024-03-03T21:08:21.461Z,10.05
2024-03-03T21:10:23.461Z,10.02
2024-03-03T21:12:25.852Z,10.01
2024-03-03T21:14:28.051Z,10.01
2024-03-03T21:16:30.178Z,10.03
2024-03-03T21:18:32.082Z,10.07
2024-03-03T21:20:33.893Z,10.08
2024-03-03T21:22:36.140Z,10.12
2024-03-03T21:24:38.825Z,10.12
2024-03-03T21:26:45.455Z,10.12
2024-03-03T21:28:49.359Z,10.16
2024-03-03T21:30:51.620Z,10.15
2024-03-03T21:32:53.443Z,10.11
2024-03-03T21:34:55.335Z,10.11
2024-03-03T21:36:58.103Z,10.10
2024-03-03T21:39:00.003Z,10.08
2024-03-03T21:41:03.675Z,10.05
2024-03-03T21:43:13.062Z,10.00
2024-03-03T21:45:15.250Z,9.96
2024-03-03T21:47:18.883Z,9.89
2024-03-03T21:49:20.848Z,9.79
2024-03-03T21:51:22.744Z,9.74
2024-03-03T21:53:24.558Z,9.64
2024-03-03T21:55:26.576Z,9.31
2024-03-03T21:57:28.770Z,9.16
2024-03-03T21:59:30.490Z,8.79
2024-03-03T22:01:32.290Z,8.25
2024-03-03T22:03:34.149Z,7.95
2024-03-03T22:05:36.244Z,7.86
2024-03-03T22:07:38.148Z,7.94
2024-03-03T22:09:40.955Z,8.04
2024-03-03T22:11:42.872Z,8.15
2024-03-03T22:13:44.785Z,8.25
2024-03-03T22:15:46.685Z,8.37
2024-03-03T22:17:48.451Z,8.51
2024-03-03T22:19:50.219Z,8.64
2024-03-03T22:21:52.191Z,8.72
2024-03-03T22:23:54.191Z,8.80
2024-03-03T22:25:58.551Z,8.85
2024-03-03T22:28:00.440Z,8.85
2024-03-03T22:30:02.261Z,8.87
2024-03-03T22:32:04.920Z,8.88
2024-03-03T22:34:07.246Z,8.92
2024-03-03T22:36:09.598Z,8.92
2024-03-03T22:38:11.692Z,8.96
2024-03-03T22:40:15.987Z,8.97
2024-03-03T22:42:17.844Z,9.00
2024-03-03T22:44:19.792Z,9.06
2024-03-03T22:46:23.254Z,9.04
2024-03-03T22:48:26.785Z,9.06
2024-03-03T22:50:30.661Z,9.07
2024-03-03T22:52:32.497Z,9.10
2024-03-03T22:54:34.377Z,9.13
2024-03-03T22:56:36.232Z,9.13
2024-03-03T22:58:38.187Z,9.15
2024-03-03T23:00:41.480Z,9.15
2024-03-03T23:02:43.357Z,9.13
2024-03-03T23:04:48.735Z,9.09
2024-03-03T23:06:51.597Z,9.02
2024-03-03T23:08:53.566Z,8.98
2024-03-03T23:10:55.719Z,8.96
2024-03-03T23:12:57.504Z,8.98
2024-03-03T23:14:59.437Z,9.01
2024-03-03T23:17:01.205Z,9.08
2024-03-03T23:19:03.054Z,9.14
2024-03-03T23:21:05.243Z,9.12
2024-03-03T23:23:06.983Z,9.12
2024-03-03T23:25:09.096Z,9.12
2024-03-03T23:27:10.965Z,9.12
2024-03-03T23:29:13.050Z,9.10
2024-03-03T23:31:15.627Z,9.06
2024-03-03T23:33:17.531Z,9.09
2024-03-03T23:35:19.448Z,9.04
2024-03-03T23:37:21.546Z,9.01
2024-03-03T23:39:23.535Z,9.02
2024-03-03T23:41:25.440Z,9.00
2024-03-03T23:43:29.221Z,8.95
2024-03-03T23:45:30.977Z,8.85
2024-03-03T23:47:32.797Z,8.78
2024-03-03T23:49:34.929Z,8.79
2024-03-03T23:51:37.242Z,8.84
2024-03-03T23:53:38.996Z,8.84
2024-03-03T23:55:40.878Z,8.81
2024-03-03T23:57:42.903Z,8.79
2024-03-03T23:59:45.138Z,8.77
